Time;durP1;ratioP1;P1;durP2;ratioP2;P2;SDS_P1;SDS_P2;PMS_P1;PMS_P2;Temp;Humidity;BMP_temperature;BMP_pressure;BME280_temperature;BME280_humidity;BME280_pressure;Samples;Min_cycle;Max_cycle;Signal;HPM_P1;HPM_P2
2020/12/12 00:00:08;;;;;;;12.52;11.23;;;;;;;;;;5069712;28;20189;-58
2020/12/12 00:02:33;;;;;;;13.75;12.05;;;;;;;;;;5069714;28;20187;-58
2020/12/12 00:04:58;;;;;;;12.30;11.10;;;;;;;;;;5070257;28;20206;-58
2020/12/12 00:07:24;;;;;;;12.30;11.10;;;;;;;;;;5067991;28;20619;-56
2020/12/12 00:09:49;;;;;;;12.50;11.27;;;;;;;;;;5068523;28;20180;-58
2020/12/12 00:12:14;;;;;;;11.00;10.00;;;;;;;;;;5069971;28;20209;-59
2020/12/12 00:14:40;;;;;;;11.00;9.90;;;;;;;;;;5069842;28;20178;-59
2020/12/12 00:17:05;;;;;;;11.80;10.60;;;;;;;;;;5067937;28;20360;-59
2020/12/12 00:19:30;;;;;;;11.50;10.40;;;;;;;;;;5065742;28;20178;-59
2020/12/12 00:21:55;;;;;;;10.65;9.63;;;;;;;;;;5069699;28;20257;-57
2020/12/12 00:24:21;;;;;;;11.55;10.45;;;;;;;;;;5068362;28;20736;-57
2020/12/12 00:26:46;;;;;;;11.73;10.53;;;;;;;;;;5067072;28;20209;-57
2020/12/12 00:29:12;;;;;;;10.87;9.80;;;;;;;;;;5069088;28;20699;-58
2020/12/12 00:31:39;;;;;;;10.37;9.33;;;;;;;;;;5069480;28;20257;-56
2020/12/12 00:34:04;;;;;;;10.27;9.27;;;;;;;;;;5067643;28;20688;-58
2020/12/12 00:36:29;;;;;;;12.25;10.30;;;;;;;;;;5067431;28;20646;-58
2020/12/12 00:38:54;;;;;;;10.85;9.73;;;;;;;;;;5069408;28;20616;-57
2020/12/12 00:41:19;;;;;;;11.05;9.93;;;;;;;;;;5069545;28;20160;-57
2020/12/12 00:43:44;;;;;;;10.20;9.20;;;;;;;;;;5070307;28;20258;-57
2020/12/12 00:46:10;;;;;;;10.00;8.98;;;;;;;;;;5067261;28;20208;-58
2020/12/12 00:48:35;;;;;;;10.70;9.60;;;;;;;;;;5068806;28;20187;-58
2020/12/12 00:51:00;;;;;;;10.90;9.60;;;;;;;;;;5069048;28;20640;-58
2020/12/12 00:53:25;;;;;;;10.05;9.05;;;;;;;;;;5069679;28;20171;-58
2020/12/12 00:55:54;;;;;;;10.15;9.13;;;;;;;;;;5068294;28;20227;-57
2020/12/12 00:58:20;;;;;;;10.20;9.20;;;;;;;;;;5065809;28;20279;-56
2020/12/12 01:00:45;;;;;;;10.27;9.00;;;;;;;;;;5067924;28;20644;-57
2020/12/12 01:03:10;;;;;;;11.17;9.97;;;;;;;;;;5069287;28;20173;-57
2020/12/12 01:05:35;;;;;;;10.05;9.05;;;;;;;;;;5069249;28;20228;-59
2020/12/12 01:08:01;;;;;;;11.27;9.80;;;;;;;;;;5064574;28;20189;-57
2020/12/12 01:10:26;;;;;;;11.10;9.97;;;;;;;;;;5068857;28;20555;-57
2020/12/12 01:12:52;;;;;;;10.43;9.43;;;;;;;;;;5068099;28;21152;-56
2020/12/12 01:15:17;;;;;;;12.47;11.00;;;;;;;;;;5069349;28;20175;-57
2020/12/12 01:17:42;;;;;;;12.40;11.20;;;;;;;;;;5067128;28;20219;-57
2020/12/12 01:20:08;;;;;;;12.30;10.98;;;;;;;;;;5068578;28;20197;-57
2020/12/12 01:22:34;;;;;;;13.03;11.67;;;;;;;;;;5069102;28;20192;-57
2020/12/12 01:24:59;;;;;;;12.50;11.20;;;;;;;;;;5067751;28;20199;-56
2020/12/12 01:27:25;;;;;;;12.35;11.13;;;;;;;;;;5063444;28;20643;-58
2020/12/12 01:29:50;;;;;;;11.33;9.77;;;;;;;;;;5068585;28;20179;-57
2020/12/12 01:32:15;;;;;;;12.52;11.13;;;;;;;;;;5068613;28;20667;-57
2020/12/12 01:34:40;;;;;;;12.27;10.73;;;;;;;;;;5069089;28;20667;-57
2020/12/12 01:37:05;;;;;;;12.02;10.82;;;;;;;;;;5066987;28;20189;-58
2020/12/12 01:39:30;;;;;;;11.48;10.35;;;;;;;;;;5066006;28;20211;-58
2020/12/12 01:41:55;;;;;;;11.98;10.60;;;;;;;;;;5072327;28;20576;-57
2020/12/12 01:44:21;;;;;;;11.87;10.77;;;;;;;;;;5072789;28;20175;-57
2020/12/12 01:46:47;;;;;;;12.30;10.93;;;;;;;;;;5071124;28;20191;-57
2020/12/12 01:49:12;;;;;;;12.50;11.30;;;;;;;;;;5067259;28;20202;-58
2020/12/12 01:51:38;;;;;;;12.37;11.10;;;;;;;;;;5071481;28;20637;-57
2020/12/12 01:54:04;;;;;;;12.50;11.20;;;;;;;;;;5072425;28;20181;-58
2020/12/12 01:56:29;;;;;;;13.57;10.80;;;;;;;;;;5070925;28;20173;-58
2020/12/12 01:58:54;;;;;;;11.90;10.70;;;;;;;;;;5068576;28;20611;-58
2020/12/12 02:01:23;;;;;;;14.00;10.80;;;;;;;;;;5072524;28;20271;-58
2020/12/12 02:03:49;;;;;;;13.53;12.20;;;;;;;;;;5072163;28;20641;-58
2020/12/12 02:06:14;;;;;;;14.03;12.20;;;;;;;;;;5072317;28;20789;-58
2020/12/12 02:08:40;;;;;;;12.47;11.27;;;;;;;;;;5070621;28;20683;-58
2020/12/12 02:11:07;;;;;;;13.73;12.33;;;;;;;;;;5069428;28;20537;-57
2020/12/12 02:13:33;;;;;;;13.53;12.00;;;;;;;;;;5072452;28;20177;-58
2020/12/12 02:15:58;;;;;;;12.37;11.17;;;;;;;;;;5072137;28;20654;-58
2020/12/12 02:18:24;;;;;;;12.10;10.90;;;;;;;;;;5063160;28;20177;-58
2020/12/12 02:20:53;;;;;;;11.60;10.43;;;;;;;;;;5068863;28;20197;-57
2020/12/12 02:23:18;;;;;;;11.83;10.50;;;;;;;;;;5070943;28;20216;-57
2020/12/12 02:25:44;;;;;;;12.57;11.13;;;;;;;;;;5067212;28;20607;-57
2020/12/12 02:28:12;;;;;;;12.25;10.95;;;;;;;;;;5067727;28;20235;-57
2020/12/12 02:30:37;;;;;;;12.70;11.40;;;;;;;;;;5072149;28;20169;-58
2020/12/12 02:33:03;;;;;;;11.87;10.77;;;;;;;;;;5065673;28;21223;-58
2020/12/12 02:35:28;;;;;;;10.48;9.45;;;;;;;;;;5071083;28;20201;-57
2020/12/12 02:37:53;;;;;;;12.30;11.00;;;;;;;;;;5068376;28;20191;-57
2020/12/12 02:40:19;;;;;;;10.50;9.50;;;;;;;;;;5071391;28;20259;-58
2020/12/12 02:42:44;;;;;;;10.77;9.77;;;;;;;;;;5071246;28;20548;-58
2020/12/12 02:45:09;;;;;;;10.30;9.20;;;;;;;;;;5071683;28;20875;-57
2020/12/12 02:47:35;;;;;;;11.90;10.70;;;;;;;;;;5067909;28;20210;-57
2020/12/12 02:50:04;;;;;;;12.10;10.87;;;;;;;;;;5062223;28;20250;-56
2020/12/12 02:52:29;;;;;;;11.57;10.37;;;;;;;;;;5070786;28;20773;-57
2020/12/12 02:54:55;;;;;;;11.47;10.37;;;;;;;;;;5067226;28;20619;-57
2020/12/12 02:57:20;;;;;;;11.47;10.00;;;;;;;;;;5069137;28;20694;-57
2020/12/12 02:59:45;;;;;;;11.00;9.73;;;;;;;;;;5071304;28;20186;-57
2020/12/12 03:02:10;;;;;;;11.15;9.98;;;;;;;;;;5071241;28;20228;-57
2020/12/12 03:04:35;;;;;;;10.32;9.25;;;;;;;;;;5071134;28;20182;-57
2020/12/12 03:07:00;;;;;;;10.80;9.80;;;;;;;;;;5068366;28;20205;-57
2020/12/12 03:09:25;;;;;;;10.50;9.48;;;;;;;;;;5066943;28;20184;-57
2020/12/12 03:11:51;;;;;;;10.32;9.32;;;;;;;;;;5071122;28;20175;-57
2020/12/12 03:14:16;;;;;;;10.10;9.10;;;;;;;;;;5071432;28;20321;-57
2020/12/12 03:16:41;;;;;;;10.68;9.18;;;;;;;;;;5070769;28;20265;-57
2020/12/12 03:19:06;;;;;;;10.07;9.07;;;;;;;;;;5060269;28;20177;-57
2020/12/12 03:21:31;;;;;;;9.67;8.67;;;;;;;;;;5062519;28;20182;-58
2020/12/12 03:23:56;;;;;;;11.07;10.02;;;;;;;;;;5070845;28;20548;-57
2020/12/12 03:26:21;;;;;;;10.85;9.73;;;;;;;;;;5071122;28;20568;-57
2020/12/12 03:28:47;;;;;;;10.60;9.60;;;;;;;;;;5068841;28;20200;-58
2020/12/12 03:31:12;;;;;;;10.33;8.33;;;;;;;;;;5070546;28;20163;-58
2020/12/12 03:33:37;;;;;;;9.20;8.37;;;;;;;;;;5066127;28;20178;-58
2020/12/12 03:36:02;;;;;;;9.77;8.90;;;;;;;;;;5070702;28;20659;-57
2020/12/12 03:38:28;;;;;;;10.70;9.67;;;;;;;;;;5061890;28;20219;-58
2020/12/12 03:40:53;;;;;;;10.67;9.67;;;;;;;;;;5070549;28;20179;-57
2020/12/12 03:43:19;;;;;;;10.23;9.23;;;;;;;;;;5070247;28;20178;-61
2020/12/12 03:45:44;;;;;;;9.60;8.70;;;;;;;;;;5070393;28;20213;-58
2020/12/12 03:48:09;;;;;;;11.45;9.73;;;;;;;;;;5068839;28;20625;-58
2020/12/12 03:50:35;;;;;;;10.02;9.02;;;;;;;;;;5070142;28;20185;-58
2020/12/12 03:53:00;;;;;;;11.23;10.07;;;;;;;;;;5070481;28;20790;-58
2020/12/12 03:55:25;;;;;;;10.67;9.70;;;;;;;;;;5070460;28;20168;-59
2020/12/12 03:57:50;;;;;;;11.30;10.20;;;;;;;;;;5066083;28;20289;-57
2020/12/12 04:00:15;;;;;;;11.10;9.97;;;;;;;;;;5069292;28;20190;-57
2020/12/12 04:02:40;;;;;;;10.90;9.93;;;;;;;;;;5068300;28;20190;-57
2020/12/12 04:05:06;;;;;;;11.75;10.68;;;;;;;;;;5069114;28;20637;-57
2020/12/12 04:07:31;;;;;;;12.70;11.50;;;;;;;;;;5068136;28;20198;-57
2020/12/12 04:09:56;;;;;;;9.90;9.00;;;;;;;;;;5068603;28;20175;-57
2020/12/12 04:12:21;;;;;;;12.38;11.13;;;;;;;;;;5069983;28;20649;-57
2020/12/12 04:14:46;;;;;;;11.20;10.10;;;;;;;;;;5068949;28;20190;-57
2020/12/12 04:17:11;;;;;;;12.50;11.17;;;;;;;;;;5069427;28;20245;-57
2020/12/12 04:19:37;;;;;;;11.83;10.57;;;;;;;;;;5067481;28;20665;-57
2020/12/12 04:22:02;;;;;;;11.30;10.30;;;;;;;;;;5069262;28;20557;-58
2020/12/12 04:24:27;;;;;;;11.67;10.53;;;;;;;;;;5068289;28;20182;-57
2020/12/12 04:26:52;;;;;;;12.88;11.40;;;;;;;;;;5068867;28;21903;-57
2020/12/12 04:29:18;;;;;;;13.07;11.77;;;;;;;;;;5067892;28;20636;-57
2020/12/12 04:31:43;;;;;;;11.43;10.32;;;;;;;;;;5069507;28;20235;-58
2020/12/12 04:34:08;;;;;;;10.90;9.93;;;;;;;;;;5069433;28;20189;-57
2020/12/12 04:36:33;;;;;;;11.90;10.90;;;;;;;;;;5067703;28;20668;-57
2020/12/12 04:38:59;;;;;;;13.20;11.90;;;;;;;;;;5066936;28;20198;-57
2020/12/12 04:41:25;;;;;;;12.60;11.30;;;;;;;;;;5069596;28;20171;-57
2020/12/12 04:43:50;;;;;;;12.93;11.63;;;;;;;;;;5069394;28;20592;-57
2020/12/12 04:46:16;;;;;;;12.57;11.27;;;;;;;;;;5069815;28;20206;-57
2020/12/12 04:48:41;;;;;;;13.27;11.80;;;;;;;;;;5064691;28;20201;-57
2020/12/12 04:51:06;;;;;;;11.87;10.77;;;;;;;;;;5069421;28;20193;-57
2020/12/12 04:53:32;;;;;;;11.67;10.47;;;;;;;;;;5068930;28;20207;-57
2020/12/12 04:55:57;;;;;;;12.20;11.10;;;;;;;;;;5069022;28;20192;-57
2020/12/12 04:58:23;;;;;;;13.00;11.80;;;;;;;;;;5067753;28;20228;-58
2020/12/12 05:00:49;;;;;;;13.60;12.10;;;;;;;;;;5066420;28;20205;-57
2020/12/12 05:03:16;;;;;;;11.87;10.80;;;;;;;;;;5069008;28;20604;-57
2020/12/12 05:05:41;;;;;;;12.77;11.47;;;;;;;;;;5069156;28;20703;-58
2020/12/12 05:08:08;;;;;;;13.03;11.80;;;;;;;;;;5067419;28;20728;-58
2020/12/12 05:10:37;;;;;;;12.63;11.33;;;;;;;;;;5068744;28;20173;-58
2020/12/12 05:13:11;;;;;;;12.50;11.33;;;;;;;;;;5067318;28;21595;-57
2020/12/12 05:15:37;;;;;;;12.27;11.13;;;;;;;;;;5064318;28;20597;-57
2020/12/12 05:18:02;;;;;;;12.80;11.55;;;;;;;;;;5066975;28;20730;-57
2020/12/12 05:20:27;;;;;;;12.40;11.15;;;;;;;;;;5067132;28;20238;-58
2020/12/12 05:22:52;;;;;;;12.43;11.15;;;;;;;;;;5069149;28;20219;-57
2020/12/12 05:25:17;;;;;;;11.80;10.60;;;;;;;;;;5068871;28;20190;-57
2020/12/12 05:27:42;;;;;;;11.13;10.13;;;;;;;;;;5065627;28;20191;-57
2020/12/12 05:30:08;;;;;;;11.35;10.25;;;;;;;;;;5068402;28;20193;-57
2020/12/12 05:32:34;;;;;;;12.50;11.20;;;;;;;;;;5067846;28;20214;-57
2020/12/12 05:34:59;;;;;;;12.53;11.43;;;;;;;;;;5068672;28;20174;-57
2020/12/12 05:37:25;;;;;;;10.98;9.98;;;;;;;;;;5067571;28;20709;-57
2020/12/12 05:39:50;;;;;;;13.80;12.43;;;;;;;;;;5067217;28;20198;-57
2020/12/12 05:42:18;;;;;;;12.52;11.32;;;;;;;;;;5067855;28;21267;-58
2020/12/12 05:44:46;;;;;;;11.83;10.73;;;;;;;;;;5069172;28;20181;-57
2020/12/12 05:47:12;;;;;;;12.60;11.30;;;;;;;;;;5068619;28;20648;-57
2020/12/12 05:49:38;;;;;;;12.03;10.83;;;;;;;;;;5062895;28;21156;-58
2020/12/12 05:52:03;;;;;;;12.40;11.20;;;;;;;;;;5067735;28;20606;-57
2020/12/12 05:54:29;;;;;;;12.33;11.17;;;;;;;;;;5068371;28;20227;-57
2020/12/12 05:56:54;;;;;;;11.77;10.60;;;;;;;;;;5068627;28;20325;-57
2020/12/12 05:59:19;;;;;;;11.40;10.30;;;;;;;;;;5064755;28;20696;-58
2020/12/12 06:01:53;;;;;;;12.30;10.98;;;;;;;;;;5068073;28;20198;-58
2020/12/12 06:04:19;;;;;;;11.00;10.00;;;;;;;;;;5065040;28;20242;-57
2020/12/12 06:06:45;;;;;;;11.60;10.50;;;;;;;;;;5067935;28;20644;-57
2020/12/12 06:09:13;;;;;;;11.83;10.73;;;;;;;;;;5063324;28;20229;-57
2020/12/12 06:11:42;;;;;;;12.00;10.90;;;;;;;;;;5063842;28;20641;-58
2020/12/12 06:14:07;;;;;;;12.07;10.97;;;;;;;;;;5067112;28;20644;-57
2020/12/12 06:16:33;;;;;;;11.40;10.40;;;;;;;;;;5068424;28;20673;-58
2020/12/12 06:19:05;;;;;;;10.93;9.93;;;;;;;;;;5066186;28;20594;-57
2020/12/12 06:21:30;;;;;;;11.40;10.37;;;;;;;;;;5066166;28;20699;-57
2020/12/12 06:23:58;;;;;;;13.88;12.43;;;;;;;;;;5072081;28;20692;-57
2020/12/12 06:26:42;;;;;;;12.30;11.10;;;;;;;;;;5070648;28;20731;-57
2020/12/12 06:29:08;;;;;;;11.80;10.60;;;;;;;;;;5062897;28;20610;-57
2020/12/12 06:31:35;;;;;;;11.20;10.20;;;;;;;;;;5071618;28;21181;-57
2020/12/12 06:34:26;;;;;;;13.07;11.77;;;;;;;;;;5070822;28;20611;-61
2020/12/12 06:36:51;;;;;;;12.37;11.17;;;;;;;;;;5068350;28;20615;-57
2020/12/12 06:39:21;;;;;;;11.85;10.68;;;;;;;;;;5070388;28;20610;-57
2020/12/12 06:41:47;;;;;;;11.30;10.20;;;;;;;;;;5071987;28;20199;-57
2020/12/12 06:44:28;;;;;;;11.60;10.50;;;;;;;;;;5071027;28;20599;-57
2020/12/12 06:46:54;;;;;;;11.53;10.50;;;;;;;;;;5071694;28;21281;-56
2020/12/12 06:49:21;;;;;;;11.23;10.23;;;;;;;;;;5068884;28;20588;-56
2020/12/12 06:51:46;;;;;;;11.27;10.27;;;;;;;;;;5071078;28;20182;-56
2020/12/12 06:54:12;;;;;;;12.10;10.90;;;;;;;;;;5070494;28;20596;-56
2020/12/12 06:56:37;;;;;;;12.50;11.30;;;;;;;;;;5070497;28;20247;-58
2020/12/12 06:59:21;;;;;;;12.20;11.00;;;;;;;;;;5069298;28;20211;-57
2020/12/12 07:01:51;;;;;;;11.70;10.60;;;;;;;;;;5071501;28;20182;-58
2020/12/12 07:04:22;;;;;;;11.93;10.83;;;;;;;;;;5068177;28;21141;-56
2020/12/12 07:06:54;;;;;;;11.57;10.47;;;;;;;;;;5070857;28;20705;-56
2020/12/12 07:09:19;;;;;;;9.70;9.00;;;;;;;;;;5069156;28;21236;-56
2020/12/12 07:11:46;;;;;;;10.70;9.70;;;;;;;;;;5071878;28;20992;-57
2020/12/12 07:14:11;;;;;;;11.70;10.70;;;;;;;;;;5069376;28;20172;-56
2020/12/12 07:16:36;;;;;;;12.20;10.13;;;;;;;;;;5070393;28;20741;-57
2020/12/12 07:19:02;;;;;;;12.57;11.37;;;;;;;;;;5069254;28;20206;-56
2020/12/12 07:21:28;;;;;;;11.37;10.27;;;;;;;;;;5071483;28;20182;-57
2020/12/12 07:23:53;;;;;;;11.70;10.53;;;;;;;;;;5070637;28;20625;-57
2020/12/12 07:26:18;;;;;;;11.50;10.50;;;;;;;;;;5070597;28;20620;-57
2020/12/12 07:28:43;;;;;;;11.80;10.73;;;;;;;;;;5067707;28;20170;-57
2020/12/12 07:31:08;;;;;;;11.85;10.75;;;;;;;;;;5062746;28;20179;-57
2020/12/12 07:33:34;;;;;;;11.17;10.17;;;;;;;;;;5070597;28;20192;-57
2020/12/12 07:35:59;;;;;;;12.83;11.50;;;;;;;;;;5069940;28;20170;-56
2020/12/12 07:38:24;;;;;;;10.47;9.60;;;;;;;;;;5070710;28;20196;-58
2020/12/12 07:40:50;;;;;;;11.10;10.00;;;;;;;;;;5064573;28;20181;-56
2020/12/12 07:43:15;;;;;;;12.13;10.97;;;;;;;;;;5070683;28;20190;-59
2020/12/12 07:46:02;;;;;;;11.60;10.40;;;;;;;;;;5070390;28;20172;-59
2020/12/12 07:48:28;;;;;;;11.83;10.63;;;;;;;;;;5066078;28;20568;-59
2020/12/12 07:50:53;;;;;;;12.17;11.07;;;;;;;;;;5068951;28;20592;-58
2020/12/12 07:53:19;;;;;;;12.50;11.30;;;;;;;;;;5067743;28;20195;-59
2020/12/12 07:55:52;;;;;;;13.00;11.80;;;;;;;;;;5070877;28;20181;-58
2020/12/12 07:58:18;;;;;;;13.97;12.57;;;;;;;;;;5069956;28;20631;-58
2020/12/12 08:00:43;;;;;;;13.20;11.90;;;;;;;;;;5066403;28;20613;-59
2020/12/12 08:03:08;;;;;;;13.25;12.05;;;;;;;;;;5069507;28;20619;-59
2020/12/12 08:05:33;;;;;;;12.87;11.67;;;;;;;;;;5070258;28;20175;-59
2020/12/12 08:08:07;;;;;;;13.20;12.00;;;;;;;;;;5070271;28;20609;-59
2020/12/12 08:10:32;;;;;;;13.00;11.80;;;;;;;;;;5068295;28;20173;-58
2020/12/12 08:12:58;;;;;;;13.82;12.52;;;;;;;;;;5069773;28;20601;-58
2020/12/12 08:15:26;;;;;;;13.70;12.27;;;;;;;;;;5069684;28;20194;-58
2020/12/12 08:17:51;;;;;;;13.23;11.70;;;;;;;;;;5070473;28;20203;-58
2020/12/12 08:20:23;;;;;;;13.68;12.48;;;;;;;;;;5067691;28;20617;-55
2020/12/12 08:22:49;;;;;;;13.37;12.07;;;;;;;;;;5069311;28;20179;-55
2020/12/12 08:25:14;;;;;;;13.30;12.10;;;;;;;;;;5056687;28;20603;-57
2020/12/12 08:27:39;;;;;;;14.30;12.90;;;;;;;;;;5064843;28;20738;-59
2020/12/12 08:30:06;;;;;;;14.67;13.17;;;;;;;;;;5066050;28;20190;-55
2020/12/12 08:32:34;;;;;;;13.83;12.43;;;;;;;;;;5069787;28;20668;-56
2020/12/12 08:35:07;;;;;;;15.67;14.17;;;;;;;;;;5065673;28;20601;-56
2020/12/12 08:37:32;;;;;;;13.77;12.33;;;;;;;;;;5068830;28;21208;-57
2020/12/12 08:39:57;;;;;;;14.40;13.05;;;;;;;;;;5067844;28;21209;-56
2020/12/12 08:42:22;;;;;;;15.30;13.70;;;;;;;;;;5069896;28;20187;-57
2020/12/12 08:44:48;;;;;;;14.53;13.20;;;;;;;;;;5068748;28;20190;-58
2020/12/12 08:47:13;;;;;;;14.18;12.95;;;;;;;;;;5067148;28;20252;-56
2020/12/12 08:49:38;;;;;;;14.23;12.85;;;;;;;;;;5066248;28;20177;-56
2020/12/12 08:52:03;;;;;;;15.30;13.50;;;;;;;;;;5069286;28;20180;-57
2020/12/12 08:54:28;;;;;;;14.63;13.23;;;;;;;;;;5069270;28;20163;-57
2020/12/12 08:57:07;;;;;;;13.30;12.00;;;;;;;;;;5070793;28;20207;-57
2020/12/12 08:59:32;;;;;;;12.70;11.50;;;;;;;;;;5068020;28;20261;-58
2020/12/12 09:01:57;;;;;;;14.35;12.75;;;;;;;;;;5069132;28;20685;-58
2020/12/12 09:04:22;;;;;;;13.27;11.98;;;;;;;;;;5069067;28;20275;-59
2020/12/12 09:06:47;;;;;;;14.63;12.97;;;;;;;;;;5055167;28;20205;-57
2020/12/12 09:09:20;;;;;;;13.20;11.90;;;;;;;;;;5060276;28;20225;-58
2020/12/12 09:11:54;;;;;;;13.60;12.20;;;;;;;;;;5067495;28;20168;-59
2020/12/12 09:14:19;;;;;;;13.30;12.00;;;;;;;;;;5069490;28;20593;-59
2020/12/12 09:16:58;;;;;;;13.73;12.33;;;;;;;;;;5062999;28;21005;-58
2020/12/12 09:19:23;;;;;;;12.83;11.67;;;;;;;;;;5054630;28;20212;-59
2020/12/12 09:21:49;;;;;;;12.80;11.50;;;;;;;;;;5069641;28;20594;-59
2020/12/12 09:24:14;;;;;;;13.17;11.87;;;;;;;;;;5068896;28;20171;-57
2020/12/12 09:26:40;;;;;;;13.17;11.90;;;;;;;;;;5069376;28;20233;-58
2020/12/12 09:29:05;;;;;;;13.90;12.60;;;;;;;;;;5067394;28;20181;-57
2020/12/12 09:31:30;;;;;;;13.87;12.60;;;;;;;;;;5067684;28;20171;-58
2020/12/12 09:33:56;;;;;;;13.30;12.10;;;;;;;;;;5068787;28;20284;-57
2020/12/12 09:36:21;;;;;;;14.80;12.10;;;;;;;;;;5069053;28;20182;-57
2020/12/12 09:38:46;;;;;;;12.90;11.70;;;;;;;;;;5062511;28;20176;-58
2020/12/12 09:41:12;;;;;;;13.30;12.00;;;;;;;;;;5066976;28;20195;-58
2020/12/12 09:43:37;;;;;;;14.53;13.13;;;;;;;;;;5068904;28;20201;-57
2020/12/12 09:46:02;;;;;;;12.57;11.37;;;;;;;;;;5068480;28;20197;-58
2020/12/12 09:48:27;;;;;;;12.10;10.90;;;;;;;;;;5065468;28;20498;-58
2020/12/12 09:50:53;;;;;;;12.60;11.40;;;;;;;;;;5067193;28;20264;-58
2020/12/12 09:53:18;;;;;;;13.07;11.77;;;;;;;;;;5069043;28;20187;-58
2020/12/12 09:55:43;;;;;;;13.47;12.17;;;;;;;;;;5068832;28;20710;-58
2020/12/12 09:58:08;;;;;;;13.80;11.20;;;;;;;;;;5069019;28;20247;-58
2020/12/12 10:00:37;;;;;;;13.63;12.20;;;;;;;;;;5067332;28;20191;-58
2020/12/12 10:03:03;;;;;;;14.37;12.87;;;;;;;;;;5072609;28;20224;-58
2020/12/12 10:05:28;;;;;;;14.70;13.23;;;;;;;;;;5072706;28;20611;-57
2020/12/12 10:07:54;;;;;;;14.05;12.65;;;;;;;;;;5072249;28;20695;-58
2020/12/12 10:10:19;;;;;;;14.90;13.40;;;;;;;;;;5064919;28;20591;-57
2020/12/12 10:12:44;;;;;;;17.93;16.03;;;;;;;;;;5072304;28;20600;-58
2020/12/12 10:15:10;;;;;;;15.85;14.25;;;;;;;;;;5072612;28;20174;-57
2020/12/12 10:17:35;;;;;;;15.30;13.75;;;;;;;;;;5072264;28;20218;-58
2020/12/12 10:20:00;;;;;;;15.73;14.00;;;;;;;;;;5066266;28;20730;-58
2020/12/12 10:22:25;;;;;;;16.27;14.25;;;;;;;;;;5072315;28;20178;-58
2020/12/12 10:24:51;;;;;;;18.05;14.93;;;;;;;;;;5072569;28;20198;-58
2020/12/12 10:27:16;;;;;;;16.33;14.70;;;;;;;;;;5071626;28;20653;-61
2020/12/12 10:29:41;;;;;;;16.52;14.18;;;;;;;;;;5070498;28;20170;-58
2020/12/12 10:32:06;;;;;;;17.47;15.47;;;;;;;;;;5071336;28;20179;-57
2020/12/12 10:34:31;;;;;;;18.60;15.40;;;;;;;;;;5072317;28;20174;-59
2020/12/12 10:36:57;;;;;;;17.50;15.75;;;;;;;;;;5071944;28;20177;-58
2020/12/12 10:39:28;;;;;;;17.77;15.87;;;;;;;;;;5071785;28;20523;-58
2020/12/12 10:41:54;;;;;;;16.53;14.83;;;;;;;;;;5065611;28;20183;-58
2020/12/12 10:44:19;;;;;;;16.40;14.68;;;;;;;;;;5071717;28;20635;-58
2020/12/12 10:46:44;;;;;;;17.07;14.73;;;;;;;;;;5072215;28;20271;-58
2020/12/12 10:49:09;;;;;;;18.83;14.93;;;;;;;;;;5070106;28;20167;-58
2020/12/12 10:51:34;;;;;;;16.33;14.48;;;;;;;;;;5070071;28;20524;-58
2020/12/12 10:53:59;;;;;;;17.23;14.33;;;;;;;;;;5071634;28;20556;-59
2020/12/12 10:56:25;;;;;;;16.33;12.93;;;;;;;;;;5070807;28;20203;-57
2020/12/12 10:58:50;;;;;;;15.37;13.70;;;;;;;;;;5060268;28;20325;-58
2020/12/12 11:01:15;;;;;;;16.05;13.27;;;;;;;;;;5069016;28;20192;-58
2020/12/12 11:03:42;;;;;;;14.87;13.37;;;;;;;;;;5071015;28;20195;-58
2020/12/12 11:06:07;;;;;;;14.13;12.63;;;;;;;;;;5076241;28;20620;-59
2020/12/12 11:08:33;;;;;;;16.30;12.10;;;;;;;;;;5070898;28;20631;-59
2020/12/12 11:10:59;;;;;;;15.48;13.32;;;;;;;;;;5068368;28;20170;-59
2020/12/12 11:13:24;;;;;;;16.53;13.23;;;;;;;;;;5070436;28;20193;-59
2020/12/12 11:15:49;;;;;;;14.38;12.88;;;;;;;;;;5069708;28;20637;-59
2020/12/12 11:18:14;;;;;;;13.43;11.93;;;;;;;;;;5070588;28;20193;-59
2020/12/12 11:20:39;;;;;;;14.00;12.57;;;;;;;;;;5068684;28;20636;-59
2020/12/12 11:23:05;;;;;;;13.53;12.10;;;;;;;;;;5068773;28;20197;-59
2020/12/12 11:25:30;;;;;;;12.80;11.47;;;;;;;;;;5070904;28;20694;-59
2020/12/12 11:27:55;;;;;;;12.68;11.35;;;;;;;;;;5069824;28;20207;-59
2020/12/12 11:30:22;;;;;;;12.93;11.63;;;;;;;;;;5068699;28;20175;-59
2020/12/12 11:32:47;;;;;;;12.83;11.50;;;;;;;;;;5070196;28;20201;-58
2020/12/12 11:38:22;;;;;;;13.20;11.80;;;;;;;;;;5070255;28;20180;-59
2020/12/12 11:45:59;;;;;;;13.10;11.80;;;;;;;;;;5063411;28;20262;-59
2020/12/12 11:48:24;;;;;;;15.10;12.97;;;;;;;;;;5064588;28;20744;-59
2020/12/12 11:50:49;;;;;;;13.30;11.90;;;;;;;;;;5069713;28;21191;-59
2020/12/12 11:53:14;;;;;;;15.10;12.93;;;;;;;;;;5068088;28;20187;-59
2020/12/12 11:55:40;;;;;;;14.30;12.80;;;;;;;;;;5068758;28;20179;-59
2020/12/12 11:58:05;;;;;;;15.20;13.00;;;;;;;;;;5069332;28;20968;-59
2020/12/12 12:00:30;;;;;;;14.75;12.20;;;;;;;;;;5070183;28;20179;-59
2020/12/12 12:02:55;;;;;;;13.03;11.50;;;;;;;;;;5067721;28;20544;-59
2020/12/12 12:05:21;;;;;;;13.95;11.40;;;;;;;;;;5068103;28;20191;-59
2020/12/12 12:07:48;;;;;;;14.87;12.50;;;;;;;;;;5065357;28;20196;-59
2020/12/12 12:12:45;;;;;;;14.70;13.10;;;;;;;;;;5067924;28;20609;-59
2020/12/12 12:15:10;;;;;;;12.77;11.37;;;;;;;;;;5069209;28;20601;-59
2020/12/12 12:17:35;;;;;;;13.90;10.57;;;;;;;;;;5070177;28;20235;-59
2020/12/12 12:20:01;;;;;;;13.80;11.30;;;;;;;;;;5068532;28;20682;-59
2020/12/12 12:22:27;;;;;;;12.80;10.47;;;;;;;;;;5067574;28;20195;-58
2020/12/12 12:24:52;;;;;;;11.03;9.90;;;;;;;;;;5060982;28;20264;-59
2020/12/12 12:27:17;;;;;;;11.90;10.60;;;;;;;;;;5067460;28;20233;-58
2020/12/12 12:29:42;;;;;;;11.43;10.30;;;;;;;;;;5069897;28;20171;-58
2020/12/12 12:32:07;;;;;;;11.90;10.70;;;;;;;;;;5065405;28;20318;-58
2020/12/12 12:34:32;;;;;;;11.83;10.53;;;;;;;;;;5069796;28;20649;-58
2020/12/12 12:36:58;;;;;;;13.13;11.13;;;;;;;;;;5067277;28;20516;-57
2020/12/12 12:39:23;;;;;;;14.63;11.73;;;;;;;;;;5069334;28;20176;-57
2020/12/12 12:41:50;;;;;;;12.20;10.47;;;;;;;;;;5067541;28;20200;-57
2020/12/12 12:44:15;;;;;;;13.13;11.47;;;;;;;;;;5068846;28;20179;-57
2020/12/12 12:46:43;;;;;;;13.80;11.77;;;;;;;;;;5069088;28;20728;-57
2020/12/12 12:49:08;;;;;;;13.83;11.90;;;;;;;;;;5061928;28;20172;-58
2020/12/12 12:51:33;;;;;;;12.40;10.70;;;;;;;;;;5066950;28;20650;-57
2020/12/12 12:53:59;;;;;;;15.27;12.30;;;;;;;;;;5068149;28;20203;-58
2020/12/12 12:56:24;;;;;;;13.97;11.97;;;;;;;;;;5068096;28;20218;-58
2020/12/12 12:58:51;;;;;;;14.60;11.97;;;;;;;;;;5066075;28;20293;-57
2020/12/12 13:01:17;;;;;;;13.27;11.50;;;;;;;;;;5064394;28;20180;-58
2020/12/12 13:03:42;;;;;;;14.50;13.00;;;;;;;;;;5066133;28;20623;-57
2020/12/12 13:06:07;;;;;;;15.25;12.70;;;;;;;;;;5063768;28;20613;-57
2020/12/12 13:08:32;;;;;;;13.85;11.40;;;;;;;;;;5067951;28;20187;-57
2020/12/12 13:10:58;;;;;;;16.60;12.20;;;;;;;;;;5062535;28;20633;-57
2020/12/12 13:13:24;;;;;;;14.00;11.90;;;;;;;;;;5066625;28;20172;-57
2020/12/12 13:15:49;;;;;;;13.73;12.03;;;;;;;;;;5067371;28;20640;-56
2020/12/12 13:18:22;;;;;;;16.30;13.63;;;;;;;;;;5068420;28;20216;-56
2020/12/12 13:20:59;;;;;;;16.57;13.83;;;;;;;;;;5062284;28;20186;-57
2020/12/12 13:23:27;;;;;;;17.60;14.63;;;;;;;;;;5066626;28;20624;-57
2020/12/12 13:25:52;;;;;;;17.10;13.60;;;;;;;;;;5068979;28;20596;-56
2020/12/12 13:28:51;;;;;;;16.83;14.70;;;;;;;;;;5068610;28;20655;-56
2020/12/12 13:31:24;;;;;;;17.03;13.87;;;;;;;;;;5064512;28;20499;-56
2020/12/12 13:33:49;;;;;;;16.47;13.13;;;;;;;;;;5061649;28;20585;-56
2020/12/12 13:36:14;;;;;;;15.98;12.77;;;;;;;;;;5071657;28;20599;-57
2020/12/12 13:38:40;;;;;;;14.88;12.45;;;;;;;;;;5071105;28;20182;-57
2020/12/12 13:41:05;;;;;;;14.32;11.27;;;;;;;;;;5070955;28;20787;-57
2020/12/12 13:43:30;;;;;;;15.33;13.60;;;;;;;;;;5070677;28;20198;-56
2020/12/12 13:45:55;;;;;;;15.53;13.00;;;;;;;;;;5072364;28;20176;-56
2020/12/12 13:48:20;;;;;;;17.30;13.65;;;;;;;;;;5071702;28;20193;-57
2020/12/12 13:50:46;;;;;;;16.20;13.93;;;;;;;;;;5077039;28;20175;-56
2020/12/12 13:53:11;;;;;;;18.00;14.60;;;;;;;;;;5071134;28;20168;-56
2020/12/12 13:55:37;;;;;;;17.97;14.80;;;;;;;;;;5072396;28;20551;-56
2020/12/12 13:58:03;;;;;;;17.43;14.03;;;;;;;;;;5071444;28;20286;-57
2020/12/12 14:00:28;;;;;;;17.33;13.50;;;;;;;;;;5065407;28;21226;-56
2020/12/12 14:02:53;;;;;;;16.83;14.23;;;;;;;;;;5064715;28;20662;-56
2020/12/12 14:05:18;;;;;;;18.60;14.90;;;;;;;;;;5065511;28;20296;-57
2020/12/12 14:07:45;;;;;;;16.27;13.40;;;;;;;;;;5071148;28;20202;-56
2020/12/12 14:20:01;;;;;;;18.80;13.80;;;;;;;;;;5071571;28;20612;-57
2020/12/12 14:24:20;;;;;;;16.87;13.93;;;;;;;;;;5072019;28;21223;-56
2020/12/12 14:29:29;;;;;;;17.00;13.47;;;;;;;;;;5069944;28;20174;-56
2020/12/12 14:31:55;;;;;;;15.73;12.97;;;;;;;;;;5069776;28;20601;-57
2020/12/12 14:34:20;;;;;;;15.43;12.20;;;;;;;;;;5072853;28;20174;-57
2020/12/12 14:36:46;;;;;;;14.80;12.33;;;;;;;;;;5072049;28;20609;-56